createdAt,value
2019-01-16T00:01:18.219Z,96812.25
2019-01-16T00:04:17.726Z,96802.25
2019-01-16T00:07:08.524Z,96802.63
2019-01-16T00:09:47.116Z,96799.67
2019-01-16T00:12:33.806Z,96797.05
2019-01-16T00:15:32.138Z,96787.83
2019-01-16T00:18:28.814Z,96794.58
2019-01-16T00:21:07.847Z,96788.03
2019-01-16T00:24:08.001Z,96779.38
2019-01-16T00:26:59.037Z,96780.13
2019-01-16T00:29:48.191Z,96780.44
2019-01-16T00:32:26.513Z,96782.55
2019-01-16T00:35:16.037Z,96778.42
2019-01-16T00:38:05.634Z,96777.51
2019-01-16T00:40:52.139Z,96775.69
2019-01-16T00:43:40.403Z,96766.07
2019-01-16T00:46:29.669Z,96770.23
2019-01-16T00:49:26.604Z,96767.97
2019-01-16T00:52:13.296Z,96768.98
2019-01-16T00:54:53.663Z,96764.63
2019-01-16T00:57:41.671Z,96766.75
2019-01-16T01:00:44.708Z,96768.23
2019-01-16T01:03:26.250Z,96766.95
2019-01-16T01:06:12.040Z,96765.45
2019-01-16T01:09:11.711Z,96769.35
2019-01-16T01:11:52.756Z,96764.28
2019-01-16T01:14:46.717Z,96763.69
2019-01-16T01:17:40.593Z,96757.34
2019-01-16T01:20:37.513Z,96769.84
2019-01-16T01:23:30.841Z,96753.89
2019-01-16T01:26:30.594Z,96756.41
2019-01-16T01:29:19.362Z,96755.70
2019-01-16T01:32:08.723Z,96759.66
2019-01-16T01:35:04.290Z,96757.70
2019-01-16T01:38:06.966Z,96762.45
2019-01-16T01:41:00.552Z,96764.44
2019-01-16T01:44:03.631Z,96762.33
2019-01-16T01:47:03.386Z,96756.85
2019-01-16T01:49:54.314Z,96758.88
2019-01-16T01:52:43.715Z,96757.13
2019-01-16T01:55:49.612Z,96754.74
2019-01-16T01:58:34.048Z,96755.06
2019-01-16T02:01:30.909Z,96753.94
2019-01-16T02:04:24.509Z,96750.19
2019-01-16T02:07:14.143Z,96744.13
2019-01-16T02:10:10.746Z,96750.40
2019-01-16T02:12:58.952Z,96746.48
2019-01-16T02:15:49.803Z,96744.14
2019-01-16T02:18:29.054Z,96743.59
2019-01-16T02:21:35.193Z,96727.46
2019-01-16T02:24:24.504Z,96738.69
2019-01-16T02:27:08.862Z,96738.03
2019-01-16T02:30:14.529Z,96739.80
2019-01-16T02:33:17.554Z,96732.20
2019-01-16T02:35:59.963Z,96726.56
2019-01-16T02:39:02.665Z,96720.56
2019-01-16T02:41:55.407Z,96717.41
2019-01-16T02:44:44.591Z,96711.17
2019-01-16T02:47:53.604Z,96714.81
2019-01-16T02:50:32.423Z,96712.11
2019-01-16T02:53:41.218Z,96710.47
2019-01-16T02:56:19.881Z,96701.95
2019-01-16T02:59:16.564Z,96704.48
2019-01-16T03:02:07.422Z,96705.52
2019-01-16T03:05:01.457Z,96701.56
2019-01-16T03:07:56.430Z,96695.63
2019-01-16T03:10:45.640Z,96687.26
2019-01-16T03:13:24.087Z,96691.98
2019-01-16T03:16:24.143Z,96689.77
2019-01-16T03:19:14.001Z,96690.80
2019-01-16T03:22:03.247Z,96697.27
2019-01-16T03:24:58.731Z,96692.11
2019-01-16T03:27:52.546Z,96686.89
2019-01-16T03:30:40.964Z,96687.03
2019-01-16T03:33:46.996Z,96681.61
2019-01-16T03:36:31.545Z,96680.03
2019-01-16T03:39:14.402Z,96672.95
2019-01-16T03:41:53.577Z,96671.45
2019-01-16T03:44:31.538Z,96667.67
2019-01-16T03:47:25.269Z,96670.68
2019-01-16T03:50:13.403Z,96670.08
2019-01-16T03:52:58.847Z,96655.25
2019-01-16T03:55:49.621Z,96657.11
2019-01-16T03:58:38.795Z,96654.39
2019-01-16T04:01:32.596Z,96650.39
2019-01-16T04:04:25.216Z,96655.58
2019-01-16T04:07:16.089Z,96650.14
2019-01-16T04:10:05.401Z,96640.47
2019-01-16T04:13:04.826Z,96634.45
2019-01-16T04:16:04.859Z,96639.30
2019-01-16T04:19:07.753Z,96640.57
2019-01-16T04:21:58.985Z,96643.98
2019-01-16T04:24:38.199Z,96640.23
2019-01-16T04:27:27.146Z,96645.63
2019-01-16T04:30:23.903Z,96646.01
2019-01-16T04:33:20.729Z,96640.94
2019-01-16T04:36:17.774Z,96633.63
2019-01-16T04:39:03.905Z,96628.58
2019-01-16T04:41:42.460Z,96624.52
2019-01-16T04:44:25.199Z,96617.55
2019-01-16T04:47:15.797Z,96626.36
2019-01-16T04:50:04.908Z,96622.89
2019-01-16T04:52:57.996Z,96631.57
2019-01-16T04:55:51.095Z,96620.83
2019-01-16T04:58:41.854Z,96624.73
2019-01-16T05:01:53.921Z,96625.91
2019-01-16T05:04:44.619Z,96619.97
2019-01-16T05:07:38.308Z,96614.48
2019-01-16T05:10:27.772Z,96619.50
2019-01-16T05:13:16.524Z,96618.02
2019-01-16T05:16:11.119Z,96625.88
2019-01-16T05:19:17.156Z,96624.97
2019-01-16T05:21:59.533Z,96614.77
2019-01-16T05:24:58.221Z,96607.26
2019-01-16T05:27:53.344Z,96599.09
2019-01-16T05:30:36.730Z,96602.22
2019-01-16T05:33:27.393Z,96604.27
2019-01-16T05:36:08.990Z,96600.05
2019-01-16T05:38:59.700Z,96607.08
2019-01-16T05:41:54.014Z,96597.12
2019-01-16T05:44:47.803Z,96592.33
2019-01-16T05:47:38.457Z,96595.91
2019-01-16T05:50:20.847Z,96592.70
2019-01-16T05:53:10.199Z,96596.03
2019-01-16T05:56:01.429Z,96588.81
2019-01-16T05:58:52.958Z,96608.80
2019-01-16T06:01:46.713Z,96596.05
2019-01-16T06:04:52.648Z,96588.87
2019-01-16T06:07:46.337Z,96588.96
2019-01-16T06:10:35.688Z,96610.83
2019-01-16T06:13:27.583Z,96600.83
2019-01-16T06:16:12.577Z,96589.14
2019-01-16T06:18:51.685Z,96579.73
2019-01-16T06:21:45.196Z,96582.56
2019-01-16T06:24:45.143Z,96577.18
2019-01-16T06:27:34.823Z,96577.39
2019-01-16T06:30:29.893Z,96578.42
2019-01-16T06:33:18.956Z,96590.62
2019-01-16T06:36:04.708Z,96587.09
2019-01-16T06:38:55.519Z,96587.93
2019-01-16T06:41:44.867Z,96581.38
2019-01-16T06:44:32.119Z,96575.13
2019-01-16T06:47:22.746Z,96576.52
2019-01-16T06:50:05.920Z,96572.30
2019-01-16T06:52:48.939Z,96562.27
2019-01-16T06:55:39.724Z,96557.34
2019-01-16T06:58:20.692Z,96553.39
2019-01-16T07:01:14.192Z,96549.37
2019-01-16T07:04:04.979Z,96538.73
2019-01-16T07:06:57.869Z,96532.96
2019-01-16T07:09:40.823Z,96529.41
2019-01-16T07:12:40.373Z,96536.97
2019-01-16T07:15:46.558Z,96554.27
2019-01-16T07:18:27.449Z,96551.50
2019-01-16T07:21:16.567Z,96540.39
2019-01-16T07:24:18.871Z,96548.63
2019-01-16T07:27:18.374Z,96540.27
2019-01-16T07:30:04.007Z,96537.05
2019-01-16T07:32:57.485Z,96541.22
2019-01-16T07:35:45.577Z,96542.23
2019-01-16T07:38:34.949Z,96538.73
2019-01-16T07:41:37.773Z,96546.16
2019-01-16T07:44:27.083Z,96544.59
2019-01-16T07:47:09.207Z,96547.47
2019-01-16T07:50:17.217Z,96541.53
2019-01-16T07:53:07.141Z,96542.02
2019-01-16T07:55:52.235Z,96548.53
2019-01-16T07:58:37.662Z,96540.00
2019-01-16T08:01:27.132Z,96539.81
2019-01-16T08:04:20.615Z,96548.08
2019-01-16T08:07:11.397Z,96539.91
2019-01-16T08:10:06.778Z,96545.94
2019-01-16T08:13:00.254Z,96543.34
2019-01-16T08:15:49.457Z,96547.33
2019-01-16T08:18:39.908Z,96539.63
2019-01-16T08:21:36.800Z,96550.05
2019-01-16T08:24:27.425Z,96530.65
2019-01-16T08:27:16.633Z,96536.52
2019-01-16T08:30:10.209Z,96527.09
2019-01-16T08:33:03.916Z,96530.95
2019-01-16T08:35:48.805Z,96521.53
2019-01-16T08:38:37.826Z,96518.70
2019-01-16T08:41:34.246Z,96520.63
2019-01-16T08:44:23.415Z,96516.94
2019-01-16T08:47:13.107Z,96516.83
2019-01-16T08:50:06.644Z,96514.02
2019-01-16T08:53:00.814Z,96503.84
2019-01-16T08:56:03.767Z,96496.21
2019-01-16T08:58:53.068Z,96493.00
2019-01-16T09:01:46.468Z,96490.91
2019-01-16T09:04:39.867Z,96490.08
2019-01-16T09:07:29.256Z,96493.50
2019-01-16T09:10:26.674Z,96496.34
2019-01-16T09:13:17.288Z,96495.16
2019-01-16T09:16:17.114Z,96496.45
2019-01-16T09:18:57.054Z,96492.43
2019-01-16T09:21:46.430Z,96493.73
2019-01-16T09:24:37.395Z,96490.20
2019-01-16T09:27:31.896Z,96495.76
2019-01-16T09:30:21.785Z,96497.05
2019-01-16T09:33:13.544Z,96494.92
2019-01-16T09:36:10.035Z,96503.44
2019-01-16T09:39:03.261Z,96500.34
2019-01-16T09:41:56.267Z,96491.73
2019-01-16T09:44:45.650Z,96488.17
2019-01-16T09:47:36.290Z,96482.38
2019-01-16T09:50:29.059Z,96483.20
2019-01-16T09:53:20.447Z,96475.09
2019-01-16T09:56:05.481Z,96473.75
2019-01-16T09:58:50.117Z,96466.88
2019-01-16T10:01:46.835Z,96461.93
2019-01-16T10:04:49.385Z,96453.19
2019-01-16T10:07:45.832Z,96445.23
2019-01-16T10:10:34.889Z,96440.28
2019-01-16T10:13:31.686Z,96428.67
2019-01-16T10:16:15.074Z,96427.59
2019-01-16T10:18:56.801Z,96419.64
2019-01-16T10:22:02.784Z,96418.96
2019-01-16T10:24:51.624Z,96414.14
2019-01-16T10:27:35.908Z,96408.30
2019-01-16T10:30:30.197Z,96406.17
2019-01-16T10:33:19.265Z,96406.97
2019-01-16T10:36:10.064Z,96400.73
2019-01-16T10:38:57.121Z,96391.59
2019-01-16T10:41:53.838Z,96379.27
2019-01-16T10:44:43.049Z,96378.26
2019-01-16T10:47:32.347Z,96386.42
2019-01-16T10:50:22.300Z,96384.91
2019-01-16T10:53:23.797Z,96390.12
2019-01-16T10:56:17.565Z,96381.06
2019-01-16T10:59:09.192Z,96385.96
2019-01-16T11:01:59.815Z,96385.16
2019-01-16T11:04:53.783Z,96383.35
2019-01-16T11:07:47.011Z,96384.45
2019-01-16T11:10:46.818Z,96381.73
2019-01-16T11:13:39.999Z,96376.57
2019-01-16T11:16:40.642Z,96366.91
2019-01-16T11:19:28.497Z,96355.06
2019-01-16T11:22:31.041Z,96339.10
2019-01-16T11:25:27.739Z,96333.25
2019-01-16T11:28:21.439Z,96334.67
2019-01-16T11:31:10.610Z,96329.16
2019-01-16T11:33:54.640Z,96322.08
2019-01-16T11:36:45.341Z,96320.95
2019-01-16T11:39:34.749Z,96316.48
2019-01-16T11:42:25.553Z,96311.34
2019-01-16T11:45:19.783Z,96299.48
2019-01-16T11:48:08.986Z,96291.13
2019-01-16T11:51:04.122Z,96281.95
2019-01-16T11:53:58.113Z,96292.53
2019-01-16T11:57:00.887Z,96285.38
2019-01-16T11:59:46.002Z,96272.81
2019-01-16T12:02:39.695Z,96270.34
2019-01-16T12:05:37.139Z,96256.55
2019-01-16T12:08:23.652Z,96253.80
2019-01-16T12:11:24.091Z,96251.94
2019-01-16T12:14:08.753Z,96248.85
2019-01-16T12:16:56.460Z,96240.67
2019-01-16T12:19:42.553Z,96241.68
2019-01-16T12:22:31.583Z,96241.63
2019-01-16T12:25:20.733Z,96234.15
2019-01-16T12:28:20.151Z,96229.85
2019-01-16T12:31:25.990Z,96215.66
2019-01-16T12:34:16.695Z,96207.30
2019-01-16T12:37:22.506Z,96202.14
2019-01-16T12:40:06.473Z,96195.41
2019-01-16T12:42:49.712Z,96185.53
2019-01-16T12:45:44.238Z,96185.91
2019-01-16T12:48:44.769Z,96183.20
2019-01-16T12:51:34.016Z,96188.83
2019-01-16T12:54:43.177Z,96182.22
2019-01-16T12:57:36.744Z,96182.57
2019-01-16T13:00:37.953Z,96181.73
2019-01-16T13:03:35.891Z,96173.10
2019-01-16T13:06:29.486Z,96170.19
2019-01-16T13:09:26.029Z,96158.98
2019-01-16T13:12:15.131Z,96161.16
2019-01-16T13:15:01.260Z,96164.58
2019-01-16T13:17:50.378Z,96167.09
2019-01-16T13:20:35.015Z,96162.50
2019-01-16T13:23:30.852Z,96160.92
2019-01-16T13:26:14.130Z,96156.73
2019-01-16T13:29:03.781Z,96168.77
2019-01-16T13:31:55.785Z,96168.59
2019-01-16T13:34:41.793Z,96155.95
2019-01-16T13:37:21.921Z,96161.58
2019-01-16T13:40:04.371Z,96160.99
2019-01-16T13:43:01.757Z,96164.26
2019-01-16T13:46:01.433Z,96158.14
2019-01-16T13:48:52.933Z,96153.20
2019-01-16T13:51:55.815Z,96144.91
2019-01-16T13:54:45.182Z,96140.78
2019-01-16T13:57:39.352Z,96142.90
2019-01-16T14:00:34.551Z,96135.02
2019-01-16T14:03:28.491Z,96131.66
2019-01-16T14:06:08.787Z,96126.34
2019-01-16T14:09:05.364Z,96126.91
2019-01-16T14:11:54.351Z,96122.20
2019-01-16T14:14:52.354Z,96111.50
2019-01-16T14:17:42.975Z,96108.73
2019-01-16T14:20:31.368Z,96102.14
2019-01-16T14:23:22.938Z,96094.08
2019-01-16T14:26:16.745Z,96088.28
2019-01-16T14:28:55.612Z,96080.52
2019-01-16T14:31:41.549Z,96080.11
2019-01-16T14:34:31.460Z,96072.70
2019-01-16T14:37:26.524Z,96079.22
2019-01-16T14:40:22.470Z,96074.23
2019-01-16T14:43:07.310Z,96077.50
2019-01-16T14:46:04.158Z,96070.97
2019-01-16T14:48:53.364Z,96073.40
2019-01-16T14:51:42.758Z,96071.66
2019-01-16T14:54:39.232Z,96069.83
2019-01-16T14:57:28.818Z,96067.72
2019-01-16T15:00:37.917Z,96055.72
2019-01-16T15:03:21.259Z,96058.09
2019-01-16T15:06:02.910Z,96058.78
2019-01-16T15:08:45.221Z,96058.33
2019-01-16T15:11:47.534Z,96058.31
2019-01-16T15:14:27.823Z,96053.37
2019-01-16T15:17:17.192Z,96049.70
2019-01-16T15:20:06.556Z,96043.13
2019-01-16T15:22:50.452Z,96047.00
2019-01-16T15:25:56.458Z,96034.44
2019-01-16T15:28:45.859Z,96032.45
2019-01-16T15:31:33.693Z,96030.63
2019-01-16T15:34:23.995Z,96019.30
2019-01-16T15:37:05.126Z,96028.16
2019-01-16T15:40:04.144Z,96029.03
2019-01-16T15:42:49.029Z,96019.92
2019-01-16T15:45:38.284Z,96020.62
2019-01-16T15:48:27.430Z,96017.57
2019-01-16T15:51:17.024Z,96017.95
2019-01-16T15:54:01.596Z,96009.65
2019-01-16T15:57:10.470Z,96011.79
2019-01-16T16:00:03.867Z,96008.91
2019-01-16T16:02:50.142Z,96011.78
2019-01-16T16:05:33.608Z,96004.59
2019-01-16T16:08:24.636Z,96002.95
2019-01-16T16:11:12.954Z,95995.47
2019-01-16T16:13:54.479Z,95997.72
2019-01-16T16:16:54.613Z,95998.64
2019-01-16T16:19:54.300Z,95994.61
2019-01-16T16:23:03.020Z,95994.22
2019-01-16T16:26:00.011Z,95998.12
2019-01-16T16:28:49.897Z,95996.17
2019-01-16T16:31:40.924Z,95997.18
2019-01-16T16:34:37.949Z,95998.34
2019-01-16T16:37:41.173Z,95991.74
2019-01-16T16:40:36.944Z,95989.47
2019-01-16T16:43:21.975Z,95986.22
2019-01-16T16:46:01.976Z,95990.17
2019-01-16T16:48:47.775Z,95985.97
2019-01-16T16:51:37.408Z,95983.27
2019-01-16T16:54:34.702Z,95977.05
2019-01-16T16:57:33.740Z,95972.45
2019-01-16T17:00:19.469Z,95969.07
2019-01-16T17:03:08.710Z,95961.75
2019-01-16T17:06:05.621Z,95960.58
2019-01-16T17:08:55.141Z,95957.55
2019-01-16T17:11:56.735Z,95955.23
2019-01-16T17:14:47.663Z,95963.27
2019-01-16T17:17:37.198Z,95952.05
2019-01-16T17:20:29.090Z,95942.53
2019-01-16T17:23:19.970Z,95936.64
2019-01-16T17:26:06.626Z,95943.25
2019-01-16T17:29:00.635Z,95934.79
2019-01-16T17:31:54.342Z,95939.28
2019-01-16T17:34:51.188Z,95936.13
2019-01-16T17:37:33.387Z,95936.50
2019-01-16T17:40:27.510Z,95939.36
2019-01-16T17:43:17.916Z,95930.64
2019-01-16T17:46:27.078Z,95929.34
2019-01-16T17:49:07.496Z,95927.84
2019-01-16T17:51:56.944Z,95921.70
2019-01-16T17:54:42.642Z,95917.38
2019-01-16T17:57:32.185Z,95920.81
2019-01-16T18:00:19.382Z,95921.32
2019-01-16T18:03:03.066Z,95918.30
2019-01-16T18:05:52.656Z,95916.56
2019-01-16T18:08:49.456Z,95919.86
2019-01-16T18:11:38.741Z,95912.94
2019-01-16T18:14:44.328Z,95915.80
2019-01-16T18:17:33.951Z,95904.95
2019-01-16T18:20:34.606Z,95905.08
2019-01-16T18:23:22.600Z,95900.04
2019-01-16T18:26:02.172Z,95895.47
2019-01-16T18:28:58.892Z,95895.39
2019-01-16T18:31:49.726Z,95888.31
2019-01-16T18:34:46.205Z,95885.66
2019-01-16T18:37:52.174Z,95892.97
2019-01-16T18:40:48.204Z,95884.08
2019-01-16T18:43:37.690Z,95885.10
2019-01-16T18:46:27.758Z,95881.95
2019-01-16T18:49:11.696Z,95879.59
2019-01-16T18:52:03.456Z,95879.23
2019-01-16T18:54:54.266Z,95875.14
2019-01-16T18:57:40.789Z,95874.32
2019-01-16T19:00:35.774Z,95873.14
2019-01-16T19:03:24.371Z,95876.34
2019-01-16T19:06:13.658Z,95873.75
2019-01-16T19:09:04.400Z,95866.45
2019-01-16T19:11:55.590Z,95872.01
2019-01-16T19:14:51.708Z,95872.70
2019-01-16T19:17:54.885Z,95871.77
2019-01-16T19:21:00.634Z,95867.88
2019-01-16T19:23:50.065Z,95868.23
2019-01-16T19:26:40.791Z,95864.48
2019-01-16T19:29:49.585Z,95864.89
2019-01-16T19:32:46.287Z,95861.03
2019-01-16T19:35:46.394Z,95863.07
2019-01-16T19:38:46.165Z,95858.53
2019-01-16T19:41:39.851Z,95856.50
2019-01-16T19:44:30.593Z,95847.29
2019-01-16T19:47:30.491Z,95845.08
2019-01-16T19:50:20.019Z,95839.83
2019-01-16T19:53:15.716Z,95839.52
2019-01-16T19:56:15.989Z,95836.75
2019-01-16T19:59:06.755Z,95839.36
2019-01-16T20:02:06.418Z,95837.27
2019-01-16T20:04:55.645Z,95844.92
2019-01-16T20:07:49.769Z,95850.22
2019-01-16T20:10:43.696Z,95848.66
2019-01-16T20:13:35.629Z,95853.56
2019-01-16T20:16:22.373Z,95848.61
2019-01-16T20:19:13.183Z,95846.64
2019-01-16T20:22:00.401Z,95844.75
2019-01-16T20:24:49.524Z,95849.13
2019-01-16T20:27:49.760Z,95849.61
2019-01-16T20:30:39.051Z,95841.22
2019-01-16T20:33:41.699Z,95839.02
2019-01-16T20:36:28.597Z,95840.39
2019-01-16T20:39:18.559Z,95840.66
2019-01-16T20:42:08.603Z,95846.22
2019-01-16T20:44:57.761Z,95839.39
2019-01-16T20:47:43.737Z,95842.27
2019-01-16T20:50:26.609Z,95847.30
2019-01-16T20:53:17.597Z,95837.64
2019-01-16T20:56:02.253Z,95828.34
2019-01-16T20:59:04.850Z,95831.55
2019-01-16T21:02:00.249Z,95826.93
2019-01-16T21:04:45.041Z,95821.52
2019-01-16T21:07:42.315Z,95824.84
2019-01-16T21:10:23.414Z,95820.45
2019-01-16T21:13:05.577Z,95816.81
2019-01-16T21:15:55.627Z,95814.81
2019-01-16T21:18:45.161Z,95814.17
2019-01-16T21:21:32.003Z,95820.44
2019-01-16T21:24:25.664Z,95809.48
2019-01-16T21:27:24.074Z,95801.87
2019-01-16T21:30:13.371Z,95795.56
2019-01-16T21:33:02.830Z,95789.77
2019-01-16T21:36:05.812Z,95787.59
2019-01-16T21:38:55.317Z,95785.16
2019-01-16T21:41:55.180Z,95782.55
2019-01-16T21:44:44.113Z,95788.89
2019-01-16T21:47:43.495Z,95786.41
2019-01-16T21:50:28.996Z,95781.98
2019-01-16T21:53:17.455Z,95781.11
2019-01-16T21:56:08.324Z,95778.40
2019-01-16T21:58:59.071Z,95783.34
2019-01-16T22:01:39.637Z,95783.21
2019-01-16T22:04:29.128Z,95779.95
2019-01-16T22:07:18.737Z,95784.13
2019-01-16T22:10:09.459Z,95781.10
2019-01-16T22:12:58.846Z,95781.34
2019-01-16T22:15:55.869Z,95779.58
2019-01-16T22:18:45.806Z,95780.21
2019-01-16T22:21:45.656Z,95786.81
2019-01-16T22:24:42.131Z,95773.18
2019-01-16T22:27:40.677Z,95779.19
2019-01-16T22:30:32.547Z,95780.73
2019-01-16T22:33:21.761Z,95776.52
2019-01-16T22:36:24.544Z,95773.22
2019-01-16T22:39:14.051Z,95779.47
2019-01-16T22:41:59.905Z,95765.64
2019-01-16T22:44:47.342Z,95769.53
2019-01-16T22:47:49.894Z,95765.91
2019-01-16T22:50:33.471Z,95767.38
2019-01-16T22:53:25.148Z,95765.13
2019-01-16T22:56:21.604Z,95767.05
2019-01-16T22:59:10.933Z,95762.19
2019-01-16T23:02:10.472Z,95761.12
2019-01-16T23:05:08.267Z,95749.57
2019-01-16T23:07:56.148Z,95751.64
2019-01-16T23:10:58.796Z,95751.12
2019-01-16T23:13:49.448Z,95752.11
2019-01-16T23:16:49.277Z,95749.94
2019-01-16T23:19:35.040Z,95738.29
2019-01-16T23:22:24.302Z,95727.72
2019-01-16T23:25:15.092Z,95726.42
2019-01-16T23:28:05.269Z,95727.62
2019-01-16T23:30:51.751Z,95724.70
2019-01-16T23:33:45.609Z,95729.54
2019-01-16T23:36:30.370Z,95723.23
2019-01-16T23:39:35.715Z,95723.88
2019-01-16T23:42:31.998Z,95724.10
2019-01-16T23:45:29.493Z,95727.79
2019-01-16T23:48:38.169Z,95730.53
2019-01-16T23:51:37.255Z,95728.42
2019-01-16T23:54:26.504Z,95728.42
2019-01-16T23:57:15.864Z,95730.40
